Time;durP1;ratioP1;P1;durP2;ratioP2;P2;SDS_P1;SDS_P2;PMS_P1;PMS_P2;Temp;Humidity;BMP_temperature;BMP_pressure;BME280_temperature;BME280_humidity;BME280_pressure;Samples;Min_cycle;Max_cycle;Signal;HPM_P1;HPM_P2
2021/11/27 00:02:07;;;;;;;5.72;1.05;;;;;;;;;;4969615;28;20031;-71
2021/11/27 00:04:33;;;;;;;1.17;1.15;;;;;;;;;;4967813;28;20026;-71
2021/11/27 00:06:59;;;;;;;0.77;0.77;;;;;;;;;;4975726;28;20608;-71
2021/11/27 00:09:25;;;;;;;0.30;0.30;;;;;;;;;;4970430;28;20398;-71
2021/11/27 00:11:51;;;;;;;0.10;0.10;;;;;;;;;;4974290;28;20649;-71
2021/11/27 00:14:17;;;;;;;0.10;0.10;;;;;;;;;;4971029;28;20038;-70
2021/11/27 00:16:43;;;;;;;0.50;0.45;;;;;;;;;;4969182;28;20042;-71
2021/11/27 00:19:11;;;;;;;0.57;0.57;;;;;;;;;;4971554;28;20422;-71
2021/11/27 00:21:38;;;;;;;0.38;0.38;;;;;;;;;;4972353;28;20022;-71
2021/11/27 00:24:04;;;;;;;1.52;0.57;;;;;;;;;;4980174;28;20029;-71
2021/11/27 00:26:30;;;;;;;1.27;1.02;;;;;;;;;;4971752;28;20050;-71
2021/11/27 00:28:56;;;;;;;2.90;0.75;;;;;;;;;;4974006;28;20421;-71
2021/11/27 00:31:23;;;;;;;0.10;0.10;;;;;;;;;;4970647;28;20031;-72
2021/11/27 00:33:49;;;;;;;1.20;0.30;;;;;;;;;;4968894;28;20023;-71
2021/11/27 00:36:16;;;;;;;1.30;1.20;;;;;;;;;;4976584;28;20173;-70
2021/11/27 00:38:42;;;;;;;0.20;0.20;;;;;;;;;;4972264;28;21480;-70
2021/11/27 00:41:09;;;;;;;2.17;1.60;;;;;;;;;;4968933;28;20048;-71
2021/11/27 00:43:35;;;;;;;1.40;1.30;;;;;;;;;;4980835;28;20026;-71
2021/11/27 00:46:01;;;;;;;0.55;0.55;;;;;;;;;;4972259;28;20504;-72
2021/11/27 00:48:27;;;;;;;1.17;1.00;;;;;;;;;;4977661;28;20030;-69
2021/11/27 00:50:55;;;;;;;0.68;0.68;;;;;;;;;;4975054;28;20544;-71
2021/11/27 00:53:21;;;;;;;1.65;1.08;;;;;;;;;;4970704;28;20031;-72
2021/11/27 00:55:47;;;;;;;0.38;0.38;;;;;;;;;;4966071;28;20031;-72
2021/11/27 00:58:13;;;;;;;0.30;0.30;;;;;;;;;;4970972;28;20505;-71
2021/11/27 01:00:51;;;;;;;1.20;1.08;;;;;;;;;;4974162;28;20050;-71
2021/11/27 01:03:19;;;;;;;0.30;0.30;;;;;;;;;;4975959;28;20512;-71
2021/11/27 01:05:45;;;;;;;0.60;0.32;;;;;;;;;;4976133;28;20026;-71
2021/11/27 01:08:11;;;;;;;1.77;0.85;;;;;;;;;;4968110;28;20470;-71
2021/11/27 01:10:42;;;;;;;1.88;0.70;;;;;;;;;;4975520;28;20129;-71
2021/11/27 01:13:08;;;;;;;0.20;0.20;;;;;;;;;;4972046;28;20045;-71
2021/11/27 01:15:35;;;;;;;0.93;0.50;;;;;;;;;;4968849;28;20042;-72
2021/11/27 01:18:01;;;;;;;0.10;0.10;;;;;;;;;;4966027;28;20524;-72
2021/11/27 01:20:30;;;;;;;0.40;0.40;;;;;;;;;;4971124;28;20109;-71
2021/11/27 01:22:56;;;;;;;0.15;0.15;;;;;;;;;;4967046;28;20034;-71
2021/11/27 01:25:24;;;;;;;1.23;1.17;;;;;;;;;;4973656;28;20042;-72
2021/11/27 01:27:50;;;;;;;0.30;0.30;;;;;;;;;;4975324;28;20023;-71
2021/11/27 01:30:16;;;;;;;0.30;0.30;;;;;;;;;;4976953;28;20062;-71
2021/11/27 01:32:43;;;;;;;1.38;1.27;;;;;;;;;;4985048;28;20030;-71
2021/11/27 01:35:09;;;;;;;0.25;0.25;;;;;;;;;;4972579;28;20031;-71
2021/11/27 01:37:35;;;;;;;0.63;0.50;;;;;;;;;;4972571;28;20057;-72
2021/11/27 01:40:02;;;;;;;1.45;1.10;;;;;;;;;;4971359;28;20027;-72
2021/11/27 01:42:28;;;;;;;2.17;1.75;;;;;;;;;;4976749;28;20489;-72
2021/11/27 01:44:55;;;;;;;0.47;0.47;;;;;;;;;;4978157;28;20030;-70
2021/11/27 01:47:21;;;;;;;1.05;1.00;;;;;;;;;;4973419;28;20031;-72
2021/11/27 01:49:47;;;;;;;0.13;0.13;;;;;;;;;;4978497;28;20034;-70
2021/11/27 01:52:13;;;;;;;0.20;0.20;;;;;;;;;;4973024;28;20042;-70
2021/11/27 01:54:39;;;;;;;0.30;0.30;;;;;;;;;;4979384;28;20031;-70
2021/11/27 01:57:06;;;;;;;2.13;1.35;;;;;;;;;;4974473;28;20085;-71
2021/11/27 01:59:34;;;;;;;1.48;0.70;;;;;;;;;;4969196;28;20038;-70
2021/11/27 02:02:00;;;;;;;0.35;0.35;;;;;;;;;;4971359;28;20113;-70
2021/11/27 02:04:27;;;;;;;0.38;0.38;;;;;;;;;;4965254;28;20023;-70
2021/11/27 02:06:53;;;;;;;0.40;0.40;;;;;;;;;;4970077;28;20035;-70
2021/11/27 02:09:22;;;;;;;2.47;0.50;;;;;;;;;;4977247;28;20497;-70
2021/11/27 02:11:50;;;;;;;0.22;0.22;;;;;;;;;;4977097;28;20039;-70
2021/11/27 02:14:16;;;;;;;0.03;0.03;;;;;;;;;;4990537;28;20448;-71
2021/11/27 02:16:42;;;;;;;1.95;0.43;;;;;;;;;;4973467;28;20042;-70
2021/11/27 02:19:09;;;;;;;0.57;0.57;;;;;;;;;;4980188;28;20078;-70
2021/11/27 02:21:35;;;;;;;6.53;2.17;;;;;;;;;;4972139;28;20034;-70
2021/11/27 02:24:02;;;;;;;2.92;1.55;;;;;;;;;;4977006;28;20481;-70
2021/11/27 02:26:30;;;;;;;0.25;0.25;;;;;;;;;;4967489;28;20031;-71
2021/11/27 02:28:58;;;;;;;0.45;0.45;;;;;;;;;;4970555;28;20050;-70
2021/11/27 02:31:24;;;;;;;5.75;0.90;;;;;;;;;;4966321;28;20050;-70
2021/11/27 02:33:51;;;;;;;0.10;0.10;;;;;;;;;;4980448;28;20063;-70
2021/11/27 02:36:17;;;;;;;0.13;0.13;;;;;;;;;;4970954;28;20034;-70
2021/11/27 02:38:43;;;;;;;0.10;0.10;;;;;;;;;;4979295;28;20084;-71
2021/11/27 02:41:10;;;;;;;0.30;0.30;;;;;;;;;;4973018;28;20023;-70
2021/11/27 02:43:36;;;;;;;1.73;0.80;;;;;;;;;;4979564;28;20039;-70
2021/11/27 02:46:02;;;;;;;0.10;0.10;;;;;;;;;;4972885;28;20027;-70
2021/11/27 02:48:29;;;;;;;0.32;0.32;;;;;;;;;;4968990;28;20039;-70
2021/11/27 02:50:55;;;;;;;0.10;0.10;;;;;;;;;;4975567;28;20038;-71
2021/11/27 02:53:20;;;;;;;0.10;0.10;;;;;;;;;;4976533;28;20482;-70
2021/11/27 02:55:46;;;;;;;1.08;0.65;;;;;;;;;;4971022;28;20038;-70
2021/11/27 02:58:12;;;;;;;0.40;0.40;;;;;;;;;;4971115;28;20046;-70
2021/11/27 03:00:39;;;;;;;0.10;0.10;;;;;;;;;;4973201;28;20041;-70
2021/11/27 03:03:05;;;;;;;0.50;0.50;;;;;;;;;;4979601;28;20026;-70
2021/11/27 03:05:31;;;;;;;0.30;0.30;;;;;;;;;;4972570;28;20045;-70
2021/11/27 03:07:57;;;;;;;0.22;0.22;;;;;;;;;;4981228;28;20101;-70
2021/11/27 03:10:23;;;;;;;1.55;1.17;;;;;;;;;;4970346;28;20027;-70
2021/11/27 03:12:50;;;;;;;0.90;0.85;;;;;;;;;;4968165;28;20748;-71
2021/11/27 03:15:16;;;;;;;0.28;0.28;;;;;;;;;;4976953;28;20037;-69
2021/11/27 03:17:43;;;;;;;0.38;0.30;;;;;;;;;;4977683;28;20495;-70
2021/11/27 03:20:10;;;;;;;0.35;0.35;;;;;;;;;;4971167;28;20110;-71
2021/11/27 03:22:36;;;;;;;0.10;0.10;;;;;;;;;;4982162;28;20061;-71
2021/11/27 03:25:02;;;;;;;2.20;1.33;;;;;;;;;;4970817;28;20066;-70
2021/11/27 03:27:28;;;;;;;1.45;1.17;;;;;;;;;;4968849;28;20065;-72
2021/11/27 03:29:54;;;;;;;0.52;0.40;;;;;;;;;;4979285;28;20054;-70
2021/11/27 03:32:20;;;;;;;0.50;0.38;;;;;;;;;;4979038;28;20089;-70
2021/11/27 03:34:47;;;;;;;0.10;0.10;;;;;;;;;;4975770;28;20107;-70
2021/11/27 03:37:14;;;;;;;0.30;0.30;;;;;;;;;;4972853;28;20119;-70
2021/11/27 03:39:40;;;;;;;0.32;0.32;;;;;;;;;;4976186;28;20034;-71
2021/11/27 03:42:08;;;;;;;0.30;0.30;;;;;;;;;;4977749;28;20034;-69
2021/11/27 03:44:34;;;;;;;0.17;0.17;;;;;;;;;;4970257;28;20552;-70
2021/11/27 03:47:00;;;;;;;0.63;0.63;;;;;;;;;;4971573;28;20311;-71
2021/11/27 03:49:27;;;;;;;1.88;0.85;;;;;;;;;;4971666;28;20034;-71
2021/11/27 03:51:54;;;;;;;0.40;0.30;;;;;;;;;;4971627;28;20023;-70
2021/11/27 03:54:20;;;;;;;0.15;0.15;;;;;;;;;;4972093;28;20070;-70
2021/11/27 03:56:46;;;;;;;0.30;0.30;;;;;;;;;;4969229;28;20050;-70
2021/11/27 03:59:12;;;;;;;0.15;0.15;;;;;;;;;;4972602;28;20042;-72
2021/11/27 04:01:38;;;;;;;1.35;0.60;;;;;;;;;;4970400;28;20038;-71
2021/11/27 04:04:05;;;;;;;0.63;0.63;;;;;;;;;;4975983;28;20042;-71
2021/11/27 04:06:32;;;;;;;0.60;0.60;;;;;;;;;;4973753;28;20081;-71
2021/11/27 04:09:00;;;;;;;0.20;0.20;;;;;;;;;;4974530;28;20027;-71
2021/11/27 04:11:26;;;;;;;0.15;0.15;;;;;;;;;;4966170;28;20486;-71
2021/11/27 04:13:52;;;;;;;0.60;0.60;;;;;;;;;;4978158;28;20109;-71
2021/11/27 04:16:18;;;;;;;0.38;0.38;;;;;;;;;;4978309;28;20165;-71
2021/11/27 04:18:44;;;;;;;0.30;0.30;;;;;;;;;;4974916;28;20843;-71
2021/11/27 04:21:11;;;;;;;0.30;0.28;;;;;;;;;;4972526;28;20374;-71
2021/11/27 04:23:37;;;;;;;0.63;0.63;;;;;;;;;;4972259;28;20047;-71
2021/11/27 04:26:03;;;;;;;0.75;0.75;;;;;;;;;;4969611;28;20034;-71
2021/11/27 04:28:29;;;;;;;1.48;1.38;;;;;;;;;;4973426;28;20622;-71
2021/11/27 04:30:55;;;;;;;0.65;0.55;;;;;;;;;;4971546;28;20089;-71
2021/11/27 04:33:21;;;;;;;0.00;0.00;;;;;;;;;;4968762;28;20035;-71
2021/11/27 04:35:48;;;;;;;0.35;0.35;;;;;;;;;;4973703;28;20035;-71
2021/11/27 04:38:14;;;;;;;0.70;0.65;;;;;;;;;;4970749;28;20045;-71
2021/11/27 04:40:41;;;;;;;1.00;0.45;;;;;;;;;;4974180;28;20541;-71
2021/11/27 04:43:07;;;;;;;0.95;0.77;;;;;;;;;;4974782;28;20030;-72
2021/11/27 04:45:33;;;;;;;0.10;0.10;;;;;;;;;;4969085;28;20421;-71
2021/11/27 04:48:00;;;;;;;0.10;0.10;;;;;;;;;;4980653;28;20026;-71
2021/11/27 04:50:26;;;;;;;0.20;0.20;;;;;;;;;;4967405;28;20027;-71
2021/11/27 04:52:52;;;;;;;0.30;0.30;;;;;;;;;;4986918;28;20058;-71
2021/11/27 04:55:18;;;;;;;0.25;0.25;;;;;;;;;;4969430;28;20445;-71
2021/11/27 04:57:45;;;;;;;0.85;0.60;;;;;;;;;;4983392;28;20037;-71
2021/11/27 05:00:14;;;;;;;1.45;0.90;;;;;;;;;;4970711;28;20089;-71
2021/11/27 05:02:39;;;;;;;1.75;0.50;;;;;;;;;;4972339;28;20038;-71
2021/11/27 05:05:05;;;;;;;1.63;0.52;;;;;;;;;;4975389;28;20030;-71
2021/11/27 05:07:31;;;;;;;0.38;0.38;;;;;;;;;;4966943;28;20023;-71
2021/11/27 05:09:58;;;;;;;2.10;1.52;;;;;;;;;;4970554;28;20501;-72
2021/11/27 05:12:24;;;;;;;0.20;0.20;;;;;;;;;;4966409;28;20118;-71
2021/11/27 05:14:50;;;;;;;0.20;0.20;;;;;;;;;;4971974;28;20042;-71
2021/11/27 05:17:16;;;;;;;0.30;0.30;;;;;;;;;;4969532;28;20035;-71
2021/11/27 05:19:42;;;;;;;0.60;0.60;;;;;;;;;;4969504;28;20046;-71
2021/11/27 05:22:08;;;;;;;0.10;0.10;;;;;;;;;;4975061;28;20019;-72
2021/11/27 05:24:34;;;;;;;0.10;0.10;;;;;;;;;;4969702;28;20023;-72
2021/11/27 05:27:00;;;;;;;1.50;0.65;;;;;;;;;;4970107;28;20037;-72
2021/11/27 05:29:26;;;;;;;0.32;0.32;;;;;;;;;;4975305;28;20385;-70
2021/11/27 05:31:54;;;;;;;0.30;0.30;;;;;;;;;;4971429;28;20054;-71
2021/11/27 05:34:33;;;;;;;0.28;0.28;;;;;;;;;;4973567;28;20054;-71
2021/11/27 05:36:59;;;;;;;3.72;1.55;;;;;;;;;;4983641;28;20029;-71
2021/11/27 05:39:24;;;;;;;0.40;0.40;;;;;;;;;;4975216;28;20023;-71
2021/11/27 05:41:50;;;;;;;1.25;0.40;;;;;;;;;;4969968;28;20034;-71
2021/11/27 05:44:16;;;;;;;3.42;1.52;;;;;;;;;;4974672;28;20382;-71
2021/11/27 05:46:42;;;;;;;0.50;0.50;;;;;;;;;;4969464;28;20030;-71
2021/11/27 05:49:08;;;;;;;0.50;0.50;;;;;;;;;;4968794;28;20023;-71
2021/11/27 05:51:34;;;;;;;1.05;0.98;;;;;;;;;;4970999;28;20015;-71
2021/11/27 05:54:00;;;;;;;0.85;0.50;;;;;;;;;;4969144;28;20504;-71
2021/11/27 05:56:26;;;;;;;0.25;0.25;;;;;;;;;;4969992;28;20030;-71
2021/11/27 05:58:52;;;;;;;0.90;0.80;;;;;;;;;;4975235;28;20050;-71
2021/11/27 06:01:18;;;;;;;0.90;0.90;;;;;;;;;;4965621;28;20139;-70
2021/11/27 06:03:44;;;;;;;0.32;0.32;;;;;;;;;;4970843;28;20110;-71
2021/11/27 06:06:10;;;;;;;0.30;0.30;;;;;;;;;;4960509;28;20039;-70
2021/11/27 06:08:36;;;;;;;0.20;0.20;;;;;;;;;;4972195;28;20031;-70
2021/11/27 06:11:02;;;;;;;4.03;1.30;;;;;;;;;;4970283;28;20102;-70
2021/11/27 06:13:28;;;;;;;0.20;0.20;;;;;;;;;;4976668;28;20526;-70
2021/11/27 06:15:54;;;;;;;1.73;0.50;;;;;;;;;;4976705;28;20126;-70
2021/11/27 06:18:19;;;;;;;0.47;0.47;;;;;;;;;;4978475;28;20089;-70
2021/11/27 06:20:45;;;;;;;0.65;0.65;;;;;;;;;;4977172;28;20130;-71
2021/11/27 06:23:11;;;;;;;0.28;0.28;;;;;;;;;;4971680;28;20093;-71
2021/11/27 06:25:37;;;;;;;0.10;0.10;;;;;;;;;;4973886;28;20089;-70
2021/11/27 06:28:03;;;;;;;0.20;0.20;;;;;;;;;;4977526;28;20389;-70
2021/11/27 06:30:29;;;;;;;0.68;0.68;;;;;;;;;;4964513;28;20067;-71
2021/11/27 06:32:55;;;;;;;0.68;0.68;;;;;;;;;;4967413;28;20047;-70
2021/11/27 06:35:21;;;;;;;1.42;1.30;;;;;;;;;;4970128;28;20437;-70
2021/11/27 06:37:47;;;;;;;0.30;0.30;;;;;;;;;;4976784;28;20461;-71
2021/11/27 06:40:14;;;;;;;0.73;0.73;;;;;;;;;;4967939;28;20057;-72
2021/11/27 06:42:40;;;;;;;1.75;0.85;;;;;;;;;;4969502;28;20026;-72
2021/11/27 06:45:06;;;;;;;0.63;0.63;;;;;;;;;;4970879;28;20433;-73
2021/11/27 06:47:33;;;;;;;1.67;1.33;;;;;;;;;;4973369;28;20394;-72
2021/11/27 06:49:59;;;;;;;1.38;0.55;;;;;;;;;;4971585;28;20015;-72
2021/11/27 06:52:26;;;;;;;3.33;1.33;;;;;;;;;;4968879;28;20042;-71
2021/11/27 06:54:51;;;;;;;0.85;0.63;;;;;;;;;;4973357;28;20027;-71
2021/11/27 06:57:17;;;;;;;0.88;0.88;;;;;;;;;;4972341;28;20537;-71
2021/11/27 06:59:43;;;;;;;1.02;0.95;;;;;;;;;;4991762;28;20026;-71
2021/11/27 07:02:10;;;;;;;0.32;0.32;;;;;;;;;;4974594;28;20462;-71
2021/11/27 07:04:36;;;;;;;0.28;0.28;;;;;;;;;;4978221;28;20015;-71
2021/11/27 07:07:02;;;;;;;0.43;0.43;;;;;;;;;;4985895;28;20181;-72
2021/11/27 07:09:28;;;;;;;0.17;0.17;;;;;;;;;;4991953;28;20755;-72
2021/11/27 07:11:54;;;;;;;0.20;0.20;;;;;;;;;;4980222;28;20058;-71
2021/11/27 07:14:20;;;;;;;3.70;1.73;;;;;;;;;;4970884;28;20023;-71
2021/11/27 07:16:45;;;;;;;0.38;0.38;;;;;;;;;;4970281;28;20114;-72
2021/11/27 07:19:12;;;;;;;0.52;0.52;;;;;;;;;;4985235;28;20396;-72
2021/11/27 07:21:38;;;;;;;2.20;1.85;;;;;;;;;;4968397;28;20027;-72
2021/11/27 07:24:05;;;;;;;0.52;0.52;;;;;;;;;;4967254;28;20030;-72
2021/11/27 07:26:31;;;;;;;7.95;1.27;;;;;;;;;;4967264;28;20042;-72
2021/11/27 07:28:58;;;;;;;0.75;0.75;;;;;;;;;;4969718;28;20033;-72
2021/11/27 07:31:24;;;;;;;3.63;1.85;;;;;;;;;;4968720;28;20030;-72
2021/11/27 07:33:50;;;;;;;1.27;0.60;;;;;;;;;;4968921;28;20482;-72
2021/11/27 07:36:16;;;;;;;1.70;1.27;;;;;;;;;;4968903;28;20031;-72
2021/11/27 07:38:42;;;;;;;0.95;0.95;;;;;;;;;;4971461;28;20229;-72
2021/11/27 07:41:08;;;;;;;1.15;1.15;;;;;;;;;;4976780;28;20054;-72
2021/11/27 07:43:34;;;;;;;0.98;0.98;;;;;;;;;;4973829;28;20079;-73
2021/11/27 07:46:00;;;;;;;1.45;1.35;;;;;;;;;;4970191;28;20045;-72
2021/11/27 07:48:31;;;;;;;1.90;1.17;;;;;;;;;;4975523;28;20034;-72
2021/11/27 07:50:58;;;;;;;2.50;2.30;;;;;;;;;;4970956;28;20789;-72
2021/11/27 07:53:24;;;;;;;1.75;0.95;;;;;;;;;;4970479;28;20049;-71
2021/11/27 07:55:50;;;;;;;0.68;0.68;;;;;;;;;;4968672;28;20501;-76
2021/11/27 07:58:16;;;;;;;0.45;0.45;;;;;;;;;;4972393;28;20031;-74
2021/11/27 08:00:41;;;;;;;11.80;1.20;;;;;;;;;;4969607;28;20043;-73
2021/11/27 08:03:07;;;;;;;1.17;1.08;;;;;;;;;;4969445;28;20058;-74
2021/11/27 08:05:33;;;;;;;1.27;1.17;;;;;;;;;;4971206;28;20043;-73
2021/11/27 08:07:59;;;;;;;2.10;0.82;;;;;;;;;;4968041;28;20023;-74
2021/11/27 08:10:25;;;;;;;1.55;0.95;;;;;;;;;;4971204;28;20018;-73
2021/11/27 08:12:51;;;;;;;4.55;1.88;;;;;;;;;;4972394;28;20030;-74
2021/11/27 08:15:17;;;;;;;0.57;0.57;;;;;;;;;;4967589;28;20026;-73
2021/11/27 08:17:43;;;;;;;1.80;1.70;;;;;;;;;;4970509;28;20026;-76
2021/11/27 08:20:10;;;;;;;0.10;0.10;;;;;;;;;;4979831;28;20085;-73
2021/11/27 08:22:36;;;;;;;2.33;2.13;;;;;;;;;;4970134;28;20034;-71
2021/11/27 08:25:02;;;;;;;1.20;1.15;;;;;;;;;;4973872;28;20089;-72
2021/11/27 08:27:28;;;;;;;1.15;1.05;;;;;;;;;;4974245;28;20014;-73
2021/11/27 08:29:55;;;;;;;1.27;1.23;;;;;;;;;;4980355;28;20393;-72
2021/11/27 08:32:21;;;;;;;0.30;0.30;;;;;;;;;;4970962;28;20337;-72
2021/11/27 08:34:47;;;;;;;2.85;1.67;;;;;;;;;;4972621;28;20049;-73
2021/11/27 08:37:13;;;;;;;0.28;0.28;;;;;;;;;;4979071;28;20027;-72
2021/11/27 08:39:39;;;;;;;0.15;0.15;;;;;;;;;;4973490;28;20034;-72
2021/11/27 08:42:05;;;;;;;0.93;0.88;;;;;;;;;;4989741;28;20037;-73
2021/11/27 08:44:31;;;;;;;1.02;0.98;;;;;;;;;;4972663;28;20482;-73
2021/11/27 08:46:57;;;;;;;1.23;1.05;;;;;;;;;;4971880;28;20077;-73
2021/11/27 08:49:23;;;;;;;1.25;1.17;;;;;;;;;;4975548;28;20564;-72
2021/11/27 08:51:49;;;;;;;0.80;0.80;;;;;;;;;;4981961;28;20025;-73
2021/11/27 08:54:15;;;;;;;1.52;1.02;;;;;;;;;;4980672;28;20019;-73
2021/11/27 08:56:42;;;;;;;0.82;0.75;;;;;;;;;;4977256;28;20061;-73
2021/11/27 08:59:08;;;;;;;1.00;0.98;;;;;;;;;;4974137;28;20126;-71
2021/11/27 09:01:34;;;;;;;1.75;1.23;;;;;;;;;;4969431;28;20111;-71
2021/11/27 09:03:59;;;;;;;1.15;1.05;;;;;;;;;;4984310;28;20084;-72
2021/11/27 09:06:29;;;;;;;2.28;0.85;;;;;;;;;;4980820;28;20042;-73
2021/11/27 09:08:55;;;;;;;0.25;0.25;;;;;;;;;;4980862;28;20474;-74
2021/11/27 09:11:23;;;;;;;1.25;0.77;;;;;;;;;;4977515;28;20073;-74
2021/11/27 09:13:49;;;;;;;1.40;1.30;;;;;;;;;;4984247;28;20520;-73
2021/11/27 09:16:15;;;;;;;1.02;1.00;;;;;;;;;;4989168;28;20032;-74
2021/11/27 09:18:41;;;;;;;0.75;0.68;;;;;;;;;;4978034;28;20073;-73
2021/11/27 09:21:07;;;;;;;3.05;0.88;;;;;;;;;;4969043;28;20065;-71
2021/11/27 09:23:33;;;;;;;0.28;0.28;;;;;;;;;;4976865;28;20054;-71
2021/11/27 09:25:59;;;;;;;0.68;0.68;;;;;;;;;;4975137;28;20038;-72
2021/11/27 09:28:25;;;;;;;0.85;0.80;;;;;;;;;;4982667;28;20034;-72
2021/11/27 09:30:51;;;;;;;1.85;0.63;;;;;;;;;;4982946;28;20030;-72
2021/11/27 09:33:17;;;;;;;0.40;0.30;;;;;;;;;;4974668;28;20027;-71
2021/11/27 09:35:55;;;;;;;0.63;0.63;;;;;;;;;;4977318;28;20084;-72
2021/11/27 09:38:21;;;;;;;1.80;1.45;;;;;;;;;;4989108;28;20149;-72
2021/11/27 09:40:50;;;;;;;1.05;1.05;;;;;;;;;;4979501;28;20034;-71
2021/11/27 09:43:16;;;;;;;1.10;1.00;;;;;;;;;;4975947;28;20066;-72
2021/11/27 09:45:42;;;;;;;0.45;0.45;;;;;;;;;;4979903;28;20062;-72
2021/11/27 09:48:09;;;;;;;3.40;0.90;;;;;;;;;;4976879;28;20032;-72
2021/11/27 09:50:35;;;;;;;0.10;0.10;;;;;;;;;;4993112;28;20026;-72
2021/11/27 09:53:01;;;;;;;3.25;1.58;;;;;;;;;;4992775;28;20037;-73
2021/11/27 09:55:27;;;;;;;0.38;0.38;;;;;;;;;;4980650;28;20137;-72
2021/11/27 09:57:53;;;;;;;0.70;0.63;;;;;;;;;;4978440;28;20122;-73
2021/11/27 10:00:20;;;;;;;0.85;0.68;;;;;;;;;;4981388;28;20117;-73
2021/11/27 10:02:48;;;;;;;0.57;0.57;;;;;;;;;;4975954;28;20033;-72
2021/11/27 10:05:14;;;;;;;1.98;0.47;;;;;;;;;;4974058;28;20634;-73
2021/11/27 10:07:40;;;;;;;1.35;1.25;;;;;;;;;;4982312;28;20034;-71
2021/11/27 10:10:07;;;;;;;0.32;0.32;;;;;;;;;;4982954;28;20019;-73
2021/11/27 10:12:33;;;;;;;2.53;1.85;;;;;;;;;;4974557;28;20085;-72
2021/11/27 10:14:59;;;;;;;0.80;0.80;;;;;;;;;;4977473;28;20042;-73
2021/11/27 10:17:29;;;;;;;4.13;0.90;;;;;;;;;;4988683;28;20023;-73
2021/11/27 10:19:57;;;;;;;0.75;0.75;;;;;;;;;;4984806;28;20027;-73
2021/11/27 10:22:25;;;;;;;0.52;0.52;;;;;;;;;;4981478;28;20695;-72
2021/11/27 10:24:51;;;;;;;0.30;0.30;;;;;;;;;;4982937;28;20033;-73
2021/11/27 10:27:19;;;;;;;2.83;1.33;;;;;;;;;;4991368;28;20385;-73
2021/11/27 10:29:55;;;;;;;1.70;0.63;;;;;;;;;;4984323;28;20034;-73
2021/11/27 10:32:23;;;;;;;3.88;1.67;;;;;;;;;;4979940;28;20019;-73
2021/11/27 10:34:51;;;;;;;1.33;1.27;;;;;;;;;;4982987;28;20482;-73
2021/11/27 10:37:27;;;;;;;1.58;1.48;;;;;;;;;;4979541;28;20049;-73
2021/11/27 10:39:56;;;;;;;1.90;1.30;;;;;;;;;;4991826;28;20105;-73
2021/11/27 10:42:22;;;;;;;0.52;0.52;;;;;;;;;;4986416;28;20110;-73
2021/11/27 10:44:51;;;;;;;0.50;0.50;;;;;;;;;;4987998;28;20117;-73
2021/11/27 10:47:18;;;;;;;1.27;1.17;;;;;;;;;;4986529;28;20026;-73
2021/11/27 10:49:44;;;;;;;2.30;1.20;;;;;;;;;;4988001;28;20123;-71
2021/11/27 10:52:14;;;;;;;0.95;0.95;;;;;;;;;;4981460;28;20030;-71
2021/11/27 10:54:56;;;;;;;1.95;1.23;;;;;;;;;;4976094;28;20031;-71
2021/11/27 10:57:29;;;;;;;2.40;1.35;;;;;;;;;;4972970;28;20433;-72
2021/11/27 10:59:56;;;;;;;2.20;0.82;;;;;;;;;;4978108;28;20034;-71
2021/11/27 11:02:24;;;;;;;1.40;1.30;;;;;;;;;;4972317;28;20063;-71
2021/11/27 11:05:00;;;;;;;0.20;0.20;;;;;;;;;;4980479;28;20037;-72
2021/11/27 11:07:28;;;;;;;1.33;1.05;;;;;;;;;;4977861;28;20030;-71
2021/11/27 11:10:09;;;;;;;0.55;0.55;;;;;;;;;;4988952;28;20073;-72
2021/11/27 11:12:39;;;;;;;2.80;0.85;;;;;;;;;;4991611;28;20030;-74
2021/11/27 11:15:09;;;;;;;1.65;0.90;;;;;;;;;;4991247;28;20037;-73
2021/11/27 11:17:34;;;;;;;0.43;0.43;;;;;;;;;;4977584;28;20029;-73
2021/11/27 11:20:13;;;;;;;3.65;1.88;;;;;;;;;;4968332;28;20031;-73
2021/11/27 11:23:10;;;;;;;0.45;0.45;;;;;;;;;;4978467;28;20089;-74
2021/11/27 11:25:38;;;;;;;0.28;0.28;;;;;;;;;;4971126;28;20047;-75
2021/11/27 11:28:10;;;;;;;0.20;0.20;;;;;;;;;;4977329;28;20619;-74
2021/11/27 11:30:38;;;;;;;0.88;0.75;;;;;;;;;;4970365;28;20038;-73
2021/11/27 11:33:04;;;;;;;2.25;2.05;;;;;;;;;;4983400;28;20045;-75
2021/11/27 11:35:31;;;;;;;0.30;0.30;;;;;;;;;;4976774;28;20082;-72
2021/11/27 11:37:57;;;;;;;1.00;0.88;;;;;;;;;;4971833;28;20038;-73
2021/11/27 11:40:23;;;;;;;14.90;3.05;;;;;;;;;;4974144;28;20033;-74
2021/11/27 11:42:49;;;;;;;0.52;0.52;;;;;;;;;;4973994;28;20477;-73
2021/11/27 11:45:15;;;;;;;0.45;0.30;;;;;;;;;;4978153;28;20031;-74
2021/11/27 11:47:42;;;;;;;0.40;0.40;;;;;;;;;;4980896;28;20119;-73
2021/11/27 11:50:10;;;;;;;1.00;0.90;;;;;;;;;;4979213;28;20117;-73
2021/11/27 11:52:39;;;;;;;1.00;0.95;;;;;;;;;;4974839;28;20019;-73
2021/11/27 11:55:08;;;;;;;0.50;0.50;;;;;;;;;;4975185;28;20035;-72
2021/11/27 11:57:50;;;;;;;0.77;0.77;;;;;;;;;;4975273;28;20027;-71
2021/11/27 12:00:36;;;;;;;0.43;0.43;;;;;;;;;;4971617;28;20114;-70
2021/11/27 12:03:12;;;;;;;2.72;1.85;;;;;;;;;;4972592;28;20484;-74
2021/11/27 12:05:58;;;;;;;2.92;1.20;;;;;;;;;;4972015;28;20105;-73
2021/11/27 12:08:43;;;;;;;0.60;0.60;;;;;;;;;;4967430;28;20033;-73
2021/11/27 12:11:09;;;;;;;3.05;1.13;;;;;;;;;;4975729;28;20447;-75
2021/11/27 12:13:35;;;;;;;3.13;2.08;;;;;;;;;;4971861;28;20121;-74
2021/11/27 12:16:10;;;;;;;0.40;0.40;;;;;;;;;;4972147;28;20044;-77
2021/11/27 12:18:36;;;;;;;0.40;0.40;;;;;;;;;;4969163;28;20031;-76
2021/11/27 12:21:13;;;;;;;0.30;0.30;;;;;;;;;;4974241;28;20038;-72
2021/11/27 12:23:40;;;;;;;0.90;0.88;;;;;;;;;;4972928;28;20392;-74
2021/11/27 12:26:11;;;;;;;0.52;0.52;;;;;;;;;;4971882;28;20390;-79
2021/11/27 12:28:37;;;;;;;0.35;0.35;;;;;;;;;;4973398;28;20030;-76
2021/11/27 12:31:05;;;;;;;0.73;0.73;;;;;;;;;;4966654;28;20029;-74
2021/11/27 12:33:56;;;;;;;2.25;0.57;;;;;;;;;;4970555;28;20018;-75
2021/11/27 12:36:25;;;;;;;0.55;0.43;;;;;;;;;;4975814;28;20038;-75
2021/11/27 12:38:55;;;;;;;0.25;0.25;;;;;;;;;;4969558;28;20047;-73
2021/11/27 12:41:26;;;;;;;1.38;1.27;;;;;;;;;;4970760;28;20482;-75
2021/11/27 12:44:11;;;;;;;0.73;0.43;;;;;;;;;;4972998;28;20043;-77
2021/11/27 12:46:37;;;;;;;0.75;0.63;;;;;;;;;;4966483;28;20299;-74
2021/11/27 12:49:03;;;;;;;0.63;0.63;;;;;;;;;;4971443;28;20037;-77
2021/11/27 12:51:30;;;;;;;0.88;0.85;;;;;;;;;;4969077;28;20023;-75
2021/11/27 12:53:59;;;;;;;3.40;1.40;;;;;;;;;;4970939;28;20037;-76
2021/11/27 12:56:27;;;;;;;3.30;1.75;;;;;;;;;;4976532;28;20088;-74
2021/11/27 12:58:54;;;;;;;0.55;0.55;;;;;;;;;;4969064;28;20065;-75
2021/11/27 13:01:27;;;;;;;1.92;1.48;;;;;;;;;;4971575;28;20034;-75
2021/11/27 13:03:54;;;;;;;3.90;2.45;;;;;;;;;;4968567;28;20034;-79
2021/11/27 13:06:20;;;;;;;0.88;0.60;;;;;;;;;;4968445;28;21395;-76
2021/11/27 13:08:46;;;;;;;1.02;0.93;;;;;;;;;;4970512;28;20493;-76
2021/11/27 13:11:13;;;;;;;1.95;1.55;;;;;;;;;;4974378;28;20405;-78
2021/11/27 13:13:39;;;;;;;0.55;0.55;;;;;;;;;;4972130;28;20023;-76
2021/11/27 13:16:08;;;;;;;1.17;1.02;;;;;;;;;;4971165;28;20034;-74
2021/11/27 13:18:34;;;;;;;0.50;0.50;;;;;;;;;;4970289;28;20109;-74
2021/11/27 13:21:08;;;;;;;1.23;0.73;;;;;;;;;;4971554;28;20125;-76
2021/11/27 13:23:39;;;;;;;1.42;0.50;;;;;;;;;;4976265;28;20031;-73
2021/11/27 13:26:10;;;;;;;0.55;0.55;;;;;;;;;;4971712;28;20038;-74
2021/11/27 13:28:37;;;;;;;1.38;1.05;;;;;;;;;;4973790;28;20034;-75
2021/11/27 13:31:05;;;;;;;1.20;1.10;;;;;;;;;;4967263;28;20073;-79
2021/11/27 13:33:54;;;;;;;1.00;1.00;;;;;;;;;;4975400;28;20023;-76
2021/11/27 13:36:24;;;;;;;0.20;0.20;;;;;;;;;;4973801;28;20437;-76
2021/11/27 13:38:51;;;;;;;0.30;0.30;;;;;;;;;;4965377;28;20382;-75
2021/11/27 13:41:17;;;;;;;1.20;1.20;;;;;;;;;;4983873;28;20026;-73
2021/11/27 13:43:47;;;;;;;0.77;0.65;;;;;;;;;;4981616;28;20027;-75
2021/11/27 13:46:13;;;;;;;0.82;0.82;;;;;;;;;;4973228;28;20030;-74
2021/11/27 13:48:39;;;;;;;0.60;0.60;;;;;;;;;;4982951;28;20502;-76
2021/11/27 13:51:05;;;;;;;0.52;0.52;;;;;;;;;;4975179;28;20051;-76
2021/11/27 13:53:31;;;;;;;1.55;1.45;;;;;;;;;;4975338;28;20113;-76
2021/11/27 13:55:59;;;;;;;0.55;0.55;;;;;;;;;;4978518;28;20468;-75
2021/11/27 13:58:25;;;;;;;1.00;1.00;;;;;;;;;;4975932;28;20018;-74
2021/11/27 14:00:51;;;;;;;0.55;0.55;;;;;;;;;;4975032;28;20106;-75
2021/11/27 14:03:18;;;;;;;1.50;0.77;;;;;;;;;;4979233;28;20034;-76
2021/11/27 14:05:49;;;;;;;2.05;1.38;;;;;;;;;;4972338;28;20113;-74
2021/11/27 14:08:18;;;;;;;2.60;1.40;;;;;;;;;;4975228;28;20027;-76
2021/11/27 14:10:57;;;;;;;1.52;1.05;;;;;;;;;;4974429;28;20034;-75
2021/11/27 14:13:23;;;;;;;0.52;0.52;;;;;;;;;;4967742;28;20478;-76
2021/11/27 14:15:49;;;;;;;0.73;0.73;;;;;;;;;;4977527;28;20029;-75
2021/11/27 14:18:17;;;;;;;0.13;0.13;;;;;;;;;;4984988;28;20042;-75
2021/11/27 14:20:47;;;;;;;0.65;0.65;;;;;;;;;;4985318;28;20059;-75
2021/11/27 14:23:13;;;;;;;0.65;0.65;;;;;;;;;;4984308;28;20053;-75
2021/11/27 14:25:41;;;;;;;0.85;0.85;;;;;;;;;;4978031;28;20117;-77
2021/11/27 14:28:08;;;;;;;2.67;1.23;;;;;;;;;;4973920;28;20035;-76
2021/11/27 14:30:42;;;;;;;1.77;1.65;;;;;;;;;;4982432;28;20445;-77
2021/11/27 14:33:14;;;;;;;0.65;0.65;;;;;;;;;;4983720;28;20027;-76
2021/11/27 14:35:41;;;;;;;0.20;0.20;;;;;;;;;;4977104;28;20031;-77
2021/11/27 14:38:08;;;;;;;1.30;1.20;;;;;;;;;;4971796;28;20493;-77
2021/11/27 14:40:53;;;;;;;1.75;1.65;;;;;;;;;;4981835;28;20045;-77
2021/11/27 14:43:19;;;;;;;5.72;1.30;;;;;;;;;;4991968;28;20034;-76
2021/11/27 14:45:46;;;;;;;2.00;0.65;;;;;;;;;;4976331;28;20433;-77